KDLH/DLH METAR and TAF weather

Enter ICAO airport designator
Station Type Date Time Source
KDLH METAR 2021/03/08 14:55 UTC NOAA

KDLH 081455Z 31010KT 10SM CLR 04/M02 A3016 RMK AO2 SLP227 T00441017 51020 $


Station Type Date Time Source
KDLH Decoded METAR 2021/03/08 14:55 UTC NOAA

Duluth, Duluth International Airport, MN, United States (KDLH) 46-50-34N 092-13-34W 435M
Mar 08, 2021 - 09:55 AM EST / 2021.03.08 1455 UTC
Wind: from the NW (310 degrees) at 12 MPH (10 KT):0
Visibility: 10 mile(s):0
Sky conditions: clear
Temperature: 39.9 F (4.4 C)
Dew Point: 28.9 F (-1.7 C)
Relative Humidity: 64%
Pressure (altimeter): 30.16 in. Hg (1021 hPa)
Pressure tendency: 0.06 inches (2.0 hPa) higher than three hours ago
ob: KDLH 081455Z 31010KT 10SM CLR 04/M02 A3016 RMK AO2 SLP227 T00441017 51020
cycle: 15

Station Type Date Time Source
KDLH TAF 2021/03/08 12:45 UTC NOAA

TAF KDLH 081142Z 0812/0912 29009G16KT P6SM FEW250
FM082300 22004KT P6SM FEW100
FM090500 16005KT P6SM BKN100
FM090700 13009KT P6SM FEW015 BKN100

Example: see airport list